sensor_id;sensor_type;location;lat;lon;timestamp;P1;durP1;ratioP1;P2;durP2;ratioP2
52368;SDS011;38298;50.346;3.526;2024-01-30T00:02:08;10.27;;;5.18;;
52368;SDS011;38298;50.346;3.526;2024-01-30T00:04:34;8.20;;;4.65;;
52368;SDS011;38298;50.346;3.526;2024-01-30T00:07:00;11.85;;;5.38;;
52368;SDS011;38298;50.346;3.526;2024-01-30T00:09:26;7.35;;;5.30;;
52368;SDS011;38298;50.346;3.526;2024-01-30T00:11:52;13.05;;;5.20;;
52368;SDS011;38298;50.346;3.526;2024-01-30T00:14:18;10.48;;;5.40;;
52368;SDS011;38298;50.346;3.526;2024-01-30T00:16:44;11.88;;;5.57;;
52368;SDS011;38298;50.346;3.526;2024-01-30T00:19:11;12.32;;;5.50;;
52368;SDS011;38298;50.346;3.526;2024-01-30T00:21:37;10.93;;;5.20;;
52368;SDS011;38298;50.346;3.526;2024-01-30T00:24:03;12.50;;;4.90;;
52368;SDS011;38298;50.346;3.526;2024-01-30T00:26:29;7.72;;;5.32;;
52368;SDS011;38298;50.346;3.526;2024-01-30T00:28:55;11.18;;;4.72;;
52368;SDS011;38298;50.346;3.526;2024-01-30T00:31:21;13.38;;;5.30;;
52368;SDS011;38298;50.346;3.526;2024-01-30T00:33:47;10.95;;;5.00;;
52368;SDS011;38298;50.346;3.526;2024-01-30T00:36:13;13.13;;;5.60;;
52368;SDS011;38298;50.346;3.526;2024-01-30T00:38:39;9.05;;;5.07;;
52368;SDS011;38298;50.346;3.526;2024-01-30T00:41:08;9.98;;;5.05;;
52368;SDS011;38298;50.346;3.526;2024-01-30T00:43:34;7.57;;;5.20;;
52368;SDS011;38298;50.346;3.526;2024-01-30T00:46:00;8.75;;;4.80;;
52368;SDS011;38298;50.346;3.526;2024-01-30T00:48:26;10.70;;;5.30;;
52368;SDS011;38298;50.346;3.526;2024-01-30T00:50:52;10.52;;;5.20;;
52368;SDS011;38298;50.346;3.526;2024-01-30T00:53:19;7.43;;;4.95;;
52368;SDS011;38298;50.346;3.526;2024-01-30T00:55:45;9.80;;;4.75;;
52368;SDS011;38298;50.346;3.526;2024-01-30T00:58:11;8.05;;;5.25;;
52368;SDS011;38298;50.346;3.526;2024-01-30T01:00:37;10.27;;;5.50;;
52368;SDS011;38298;50.346;3.526;2024-01-30T01:03:03;8.90;;;5.18;;
52368;SDS011;38298;50.346;3.526;2024-01-30T01:05:29;8.60;;;5.20;;
52368;SDS011;38298;50.346;3.526;2024-01-30T01:07:55;10.25;;;4.90;;
52368;SDS011;38298;50.346;3.526;2024-01-30T01:10:21;7.18;;;4.55;;
52368;SDS011;38298;50.346;3.526;2024-01-30T01:12:47;9.35;;;4.90;;
52368;SDS011;38298;50.346;3.526;2024-01-30T01:15:13;10.05;;;5.10;;
52368;SDS011;38298;50.346;3.526;2024-01-30T01:17:39;8.38;;;5.32;;
52368;SDS011;38298;50.346;3.526;2024-01-30T01:20:06;11.25;;;5.25;;
52368;SDS011;38298;50.346;3.526;2024-01-30T01:22:32;7.53;;;4.80;;
52368;SDS011;38298;50.346;3.526;2024-01-30T01:24:59;9.52;;;5.07;;
52368;SDS011;38298;50.346;3.526;2024-01-30T01:27:25;9.68;;;4.75;;
52368;SDS011;38298;50.346;3.526;2024-01-30T01:29:51;8.98;;;4.95;;
52368;SDS011;38298;50.346;3.526;2024-01-30T01:32:17;8.95;;;4.78;;
52368;SDS011;38298;50.346;3.526;2024-01-30T01:34:44;10.57;;;4.57;;
52368;SDS011;38298;50.346;3.526;2024-01-30T01:37:10;8.80;;;5.03;;
52368;SDS011;38298;50.346;3.526;2024-01-30T01:39:36;11.75;;;4.80;;
52368;SDS011;38298;50.346;3.526;2024-01-30T01:42:02;7.72;;;4.75;;
52368;SDS011;38298;50.346;3.526;2024-01-30T01:44:28;10.43;;;4.82;;
52368;SDS011;38298;50.346;3.526;2024-01-30T01:46:54;7.28;;;4.65;;
52368;SDS011;38298;50.346;3.526;2024-01-30T01:49:23;8.82;;;4.88;;
52368;SDS011;38298;50.346;3.526;2024-01-30T01:51:49;8.38;;;5.10;;
52368;SDS011;38298;50.346;3.526;2024-01-30T01:54:16;9.07;;;4.88;;
52368;SDS011;38298;50.346;3.526;2024-01-30T01:56:43;18.60;;;5.03;;
52368;SDS011;38298;50.346;3.526;2024-01-30T01:59:09;10.25;;;4.88;;
52368;SDS011;38298;50.346;3.526;2024-01-30T02:01:38;9.70;;;4.93;;
52368;SDS011;38298;50.346;3.526;2024-01-30T02:04:08;8.30;;;4.75;;
52368;SDS011;38298;50.346;3.526;2024-01-30T02:06:34;11.75;;;5.10;;
52368;SDS011;38298;50.346;3.526;2024-01-30T02:09:00;12.65;;;5.40;;
52368;SDS011;38298;50.346;3.526;2024-01-30T02:11:26;9.70;;;5.13;;
52368;SDS011;38298;50.346;3.526;2024-01-30T02:13:53;8.80;;;4.78;;
52368;SDS011;38298;50.346;3.526;2024-01-30T02:16:19;5.82;;;4.22;;
52368;SDS011;38298;50.346;3.526;2024-01-30T02:18:45;7.43;;;4.68;;
52368;SDS011;38298;50.346;3.526;2024-01-30T02:21:14;8.63;;;4.65;;
52368;SDS011;38298;50.346;3.526;2024-01-30T02:23:40;9.13;;;4.80;;
52368;SDS011;38298;50.346;3.526;2024-01-30T02:26:06;7.63;;;4.47;;
52368;SDS011;38298;50.346;3.526;2024-01-30T02:28:32;10.52;;;4.63;;
52368;SDS011;38298;50.346;3.526;2024-01-30T02:30:58;8.85;;;4.75;;
52368;SDS011;38298;50.346;3.526;2024-01-30T02:33:24;11.65;;;5.13;;
52368;SDS011;38298;50.346;3.526;2024-01-30T02:35:50;10.45;;;4.97;;
52368;SDS011;38298;50.346;3.526;2024-01-30T02:38:16;6.95;;;4.45;;
52368;SDS011;38298;50.346;3.526;2024-01-30T02:40:42;8.75;;;4.90;;
52368;SDS011;38298;50.346;3.526;2024-01-30T02:43:08;9.07;;;4.30;;
52368;SDS011;38298;50.346;3.526;2024-01-30T02:45:34;7.70;;;4.68;;
52368;SDS011;38298;50.346;3.526;2024-01-30T02:48:01;9.25;;;5.50;;
52368;SDS011;38298;50.346;3.526;2024-01-30T02:50:27;11.18;;;4.75;;
52368;SDS011;38298;50.346;3.526;2024-01-30T02:52:53;7.28;;;5.10;;
52368;SDS011;38298;50.346;3.526;2024-01-30T02:55:19;9.45;;;4.82;;
52368;SDS011;38298;50.346;3.526;2024-01-30T02:57:45;8.13;;;4.82;;
52368;SDS011;38298;50.346;3.526;2024-01-30T03:00:11;12.82;;;5.35;;
52368;SDS011;38298;50.346;3.526;2024-01-30T03:02:37;7.55;;;4.35;;
52368;SDS011;38298;50.346;3.526;2024-01-30T03:05:05;11.27;;;4.80;;
52368;SDS011;38298;50.346;3.526;2024-01-30T03:07:31;9.75;;;4.65;;
52368;SDS011;38298;50.346;3.526;2024-01-30T03:09:57;8.80;;;5.35;;
52368;SDS011;38298;50.346;3.526;2024-01-30T03:12:23;11.35;;;5.43;;
52368;SDS011;38298;50.346;3.526;2024-01-30T03:14:49;9.40;;;4.82;;
52368;SDS011;38298;50.346;3.526;2024-01-30T03:17:15;9.95;;;5.20;;
52368;SDS011;38298;50.346;3.526;2024-01-30T03:19:41;7.72;;;4.55;;
52368;SDS011;38298;50.346;3.526;2024-01-30T03:22:07;7.63;;;4.85;;
52368;SDS011;38298;50.346;3.526;2024-01-30T03:24:33;10.38;;;5.18;;
52368;SDS011;38298;50.346;3.526;2024-01-30T03:26:59;7.60;;;4.88;;
52368;SDS011;38298;50.346;3.526;2024-01-30T03:29:25;13.25;;;5.40;;
52368;SDS011;38298;50.346;3.526;2024-01-30T03:31:51;9.00;;;4.90;;
52368;SDS011;38298;50.346;3.526;2024-01-30T03:34:17;8.60;;;4.80;;
52368;SDS011;38298;50.346;3.526;2024-01-30T03:36:43;14.63;;;5.07;;
52368;SDS011;38298;50.346;3.526;2024-01-30T03:39:09;7.97;;;5.28;;
52368;SDS011;38298;50.346;3.526;2024-01-30T03:41:35;7.63;;;4.95;;
52368;SDS011;38298;50.346;3.526;2024-01-30T03:44:01;11.38;;;4.85;;
52368;SDS011;38298;50.346;3.526;2024-01-30T03:46:27;12.05;;;5.32;;
52368;SDS011;38298;50.346;3.526;2024-01-30T03:48:53;10.63;;;5.10;;
52368;SDS011;38298;50.346;3.526;2024-01-30T03:51:19;9.18;;;5.20;;
52368;SDS011;38298;50.346;3.526;2024-01-30T03:53:45;10.95;;;5.05;;
52368;SDS011;38298;50.346;3.526;2024-01-30T03:56:11;9.88;;;4.95;;
52368;SDS011;38298;50.346;3.526;2024-01-30T03:58:41;11.03;;;5.20;;
52368;SDS011;38298;50.346;3.526;2024-01-30T04:01:07;9.60;;;4.85;;
52368;SDS011;38298;50.346;3.526;2024-01-30T04:03:33;10.98;;;5.05;;
52368;SDS011;38298;50.346;3.526;2024-01-30T04:05:59;6.72;;;4.43;;
52368;SDS011;38298;50.346;3.526;2024-01-30T04:08:25;8.00;;;4.80;;
52368;SDS011;38298;50.346;3.526;2024-01-30T04:10:51;9.93;;;5.53;;
52368;SDS011;38298;50.346;3.526;2024-01-30T04:13:17;9.77;;;4.68;;
52368;SDS011;38298;50.346;3.526;2024-01-30T04:15:43;8.38;;;4.90;;
52368;SDS011;38298;50.346;3.526;2024-01-30T04:18:09;7.82;;;4.72;;
52368;SDS011;38298;50.346;3.526;2024-01-30T04:20:35;11.60;;;4.50;;
52368;SDS011;38298;50.346;3.526;2024-01-30T04:23:01;7.63;;;5.10;;
52368;SDS011;38298;50.346;3.526;2024-01-30T04:25:27;7.70;;;4.65;;
52368;SDS011;38298;50.346;3.526;2024-01-30T04:27:53;7.32;;;4.63;;
52368;SDS011;38298;50.346;3.526;2024-01-30T04:30:19;9.20;;;4.55;;
52368;SDS011;38298;50.346;3.526;2024-01-30T04:32:45;10.93;;;5.35;;
52368;SDS011;38298;50.346;3.526;2024-01-30T04:35:11;8.45;;;4.78;;
52368;SDS011;38298;50.346;3.526;2024-01-30T04:37:37;10.27;;;5.25;;
52368;SDS011;38298;50.346;3.526;2024-01-30T04:40:04;8.05;;;4.45;;
52368;SDS011;38298;50.346;3.526;2024-01-30T04:42:30;7.90;;;4.75;;
52368;SDS011;38298;50.346;3.526;2024-01-30T04:44:56;6.57;;;4.90;;
52368;SDS011;38298;50.346;3.526;2024-01-30T04:47:22;14.32;;;5.40;;
52368;SDS011;38298;50.346;3.526;2024-01-30T04:49:48;8.93;;;4.93;;
52368;SDS011;38298;50.346;3.526;2024-01-30T04:52:15;6.68;;;4.53;;
52368;SDS011;38298;50.346;3.526;2024-01-30T04:54:41;9.07;;;4.45;;
52368;SDS011;38298;50.346;3.526;2024-01-30T04:57:07;9.57;;;4.72;;
52368;SDS011;38298;50.346;3.526;2024-01-30T04:59:36;10.07;;;4.40;;
52368;SDS011;38298;50.346;3.526;2024-01-30T05:02:02;7.78;;;4.38;;
52368;SDS011;38298;50.346;3.526;2024-01-30T05:04:28;10.30;;;4.70;;
52368;SDS011;38298;50.346;3.526;2024-01-30T05:06:54;10.38;;;5.38;;
52368;SDS011;38298;50.346;3.526;2024-01-30T05:09:20;11.10;;;5.18;;
52368;SDS011;38298;50.346;3.526;2024-01-30T05:11:47;11.13;;;5.57;;
52368;SDS011;38298;50.346;3.526;2024-01-30T05:14:13;7.30;;;4.63;;
52368;SDS011;38298;50.346;3.526;2024-01-30T05:16:40;9.27;;;4.75;;
52368;SDS011;38298;50.346;3.526;2024-01-30T05:19:06;7.80;;;4.93;;
52368;SDS011;38298;50.346;3.526;2024-01-30T05:21:32;8.90;;;5.03;;
52368;SDS011;38298;50.346;3.526;2024-01-30T05:23:59;9.35;;;5.03;;
52368;SDS011;38298;50.346;3.526;2024-01-30T05:26:25;8.43;;;4.85;;
52368;SDS011;38298;50.346;3.526;2024-01-30T05:28:51;12.23;;;5.07;;
52368;SDS011;38298;50.346;3.526;2024-01-30T05:31:17;8.27;;;4.95;;
52368;SDS011;38298;50.346;3.526;2024-01-30T05:33:43;9.10;;;4.95;;
52368;SDS011;38298;50.346;3.526;2024-01-30T05:36:11;10.27;;;5.10;;
52368;SDS011;38298;50.346;3.526;2024-01-30T05:38:38;7.95;;;4.82;;
52368;SDS011;38298;50.346;3.526;2024-01-30T05:43:34;7.20;;;4.70;;
52368;SDS011;38298;50.346;3.526;2024-01-30T05:46:00;9.18;;;5.07;;
52368;SDS011;38298;50.346;3.526;2024-01-30T05:48:26;11.70;;;4.75;;
52368;SDS011;38298;50.346;3.526;2024-01-30T05:50:52;8.10;;;4.32;;
52368;SDS011;38298;50.346;3.526;2024-01-30T05:53:18;8.75;;;4.70;;
52368;SDS011;38298;50.346;3.526;2024-01-30T05:55:44;8.88;;;4.95;;
52368;SDS011;38298;50.346;3.526;2024-01-30T05:58:11;9.07;;;5.13;;
52368;SDS011;38298;50.346;3.526;2024-01-30T06:00:37;9.38;;;4.57;;
52368;SDS011;38298;50.346;3.526;2024-01-30T06:03:03;10.40;;;5.18;;
52368;SDS011;38298;50.346;3.526;2024-01-30T06:05:29;7.13;;;5.00;;
52368;SDS011;38298;50.346;3.526;2024-01-30T06:07:55;10.88;;;4.97;;
52368;SDS011;38298;50.346;3.526;2024-01-30T06:10:21;9.25;;;5.22;;
52368;SDS011;38298;50.346;3.526;2024-01-30T06:12:47;6.28;;;4.43;;
52368;SDS011;38298;50.346;3.526;2024-01-30T06:15:13;10.45;;;5.07;;
52368;SDS011;38298;50.346;3.526;2024-01-30T06:17:39;11.45;;;4.85;;
52368;SDS011;38298;50.346;3.526;2024-01-30T06:20:05;9.00;;;5.55;;
52368;SDS011;38298;50.346;3.526;2024-01-30T06:22:31;11.88;;;5.28;;
52368;SDS011;38298;50.346;3.526;2024-01-30T06:24:57;7.15;;;4.88;;
52368;SDS011;38298;50.346;3.526;2024-01-30T06:27:23;9.38;;;5.40;;
52368;SDS011;38298;50.346;3.526;2024-01-30T06:29:49;10.77;;;5.03;;
52368;SDS011;38298;50.346;3.526;2024-01-30T06:32:15;9.52;;;5.00;;
52368;SDS011;38298;50.346;3.526;2024-01-30T06:34:41;9.75;;;5.45;;
52368;SDS011;38298;50.346;3.526;2024-01-30T06:37:09;11.07;;;5.13;;
52368;SDS011;38298;50.346;3.526;2024-01-30T06:39:35;10.65;;;5.35;;
52368;SDS011;38298;50.346;3.526;2024-01-30T06:42:01;8.45;;;5.03;;
52368;SDS011;38298;50.346;3.526;2024-01-30T06:44:27;10.38;;;5.13;;
52368;SDS011;38298;50.346;3.526;2024-01-30T06:46:53;10.70;;;5.45;;
52368;SDS011;38298;50.346;3.526;2024-01-30T06:49:19;6.72;;;4.93;;
52368;SDS011;38298;50.346;3.526;2024-01-30T06:51:47;9.25;;;5.20;;
52368;SDS011;38298;50.346;3.526;2024-01-30T06:54:13;9.77;;;4.57;;
52368;SDS011;38298;50.346;3.526;2024-01-30T06:56:39;7.65;;;4.32;;
52368;SDS011;38298;50.346;3.526;2024-01-30T06:59:05;11.45;;;4.85;;
52368;SDS011;38298;50.346;3.526;2024-01-30T07:01:31;10.48;;;5.32;;
52368;SDS011;38298;50.346;3.526;2024-01-30T07:03:57;9.13;;;5.18;;
52368;SDS011;38298;50.346;3.526;2024-01-30T07:06:23;9.27;;;4.97;;
52368;SDS011;38298;50.346;3.526;2024-01-30T07:08:49;11.55;;;5.25;;
52368;SDS011;38298;50.346;3.526;2024-01-30T07:11:19;11.93;;;5.53;;
52368;SDS011;38298;50.346;3.526;2024-01-30T07:13:47;10.88;;;5.18;;
52368;SDS011;38298;50.346;3.526;2024-01-30T07:16:13;7.35;;;4.85;;
52368;SDS011;38298;50.346;3.526;2024-01-30T07:18:40;11.90;;;5.07;;
52368;SDS011;38298;50.346;3.526;2024-01-30T07:21:06;10.90;;;5.47;;
52368;SDS011;38298;50.346;3.526;2024-01-30T07:23:32;9.38;;;5.40;;
52368;SDS011;38298;50.346;3.526;2024-01-30T07:25:59;10.73;;;5.20;;
52368;SDS011;38298;50.346;3.526;2024-01-30T07:28:25;9.85;;;5.80;;
52368;SDS011;38298;50.346;3.526;2024-01-30T07:30:51;8.65;;;5.20;;
52368;SDS011;38298;50.346;3.526;2024-01-30T07:33:17;9.23;;;5.38;;
52368;SDS011;38298;50.346;3.526;2024-01-30T07:35:44;8.82;;;5.18;;
52368;SDS011;38298;50.346;3.526;2024-01-30T07:38:11;8.95;;;5.32;;
52368;SDS011;38298;50.346;3.526;2024-01-30T07:40:37;11.40;;;5.30;;
52368;SDS011;38298;50.346;3.526;2024-01-30T07:43:03;10.43;;;5.05;;
52368;SDS011;38298;50.346;3.526;2024-01-30T07:45:29;9.50;;;5.97;;
52368;SDS011;38298;50.346;3.526;2024-01-30T07:47:58;9.88;;;5.10;;
52368;SDS011;38298;50.346;3.526;2024-01-30T07:50:25;10.25;;;5.78;;
52368;SDS011;38298;50.346;3.526;2024-01-30T07:52:51;8.23;;;5.45;;
52368;SDS011;38298;50.346;3.526;2024-01-30T07:55:20;10.30;;;5.55;;
52368;SDS011;38298;50.346;3.526;2024-01-30T07:57:49;10.43;;;5.65;;
52368;SDS011;38298;50.346;3.526;2024-01-30T08:00:16;15.10;;;5.75;;
52368;SDS011;38298;50.346;3.526;2024-01-30T08:02:42;11.27;;;6.10;;
52368;SDS011;38298;50.346;3.526;2024-01-30T08:05:08;11.80;;;5.13;;
52368;SDS011;38298;50.346;3.526;2024-01-30T08:07:36;12.50;;;6.25;;
52368;SDS011;38298;50.346;3.526;2024-01-30T08:10:02;15.00;;;5.18;;
52368;SDS011;38298;50.346;3.526;2024-01-30T08:12:28;8.73;;;5.35;;
52368;SDS011;38298;50.346;3.526;2024-01-30T08:14:54;14.30;;;5.38;;
52368;SDS011;38298;50.346;3.526;2024-01-30T08:17:20;13.10;;;5.35;;
52368;SDS011;38298;50.346;3.526;2024-01-30T08:19:46;13.00;;;6.35;;
52368;SDS011;38298;50.346;3.526;2024-01-30T08:22:12;12.82;;;5.43;;
52368;SDS011;38298;50.346;3.526;2024-01-30T08:24:38;15.77;;;6.15;;
52368;SDS011;38298;50.346;3.526;2024-01-30T08:27:05;13.85;;;6.10;;
52368;SDS011;38298;50.346;3.526;2024-01-30T08:29:34;14.13;;;5.82;;
52368;SDS011;38298;50.346;3.526;2024-01-30T08:32:00;16.77;;;6.25;;
52368;SDS011;38298;50.346;3.526;2024-01-30T08:34:26;11.07;;;6.70;;
52368;SDS011;38298;50.346;3.526;2024-01-30T08:36:52;13.60;;;5.68;;
52368;SDS011;38298;50.346;3.526;2024-01-30T08:39:18;14.20;;;5.50;;
52368;SDS011;38298;50.346;3.526;2024-01-30T08:41:44;14.05;;;6.60;;
52368;SDS011;38298;50.346;3.526;2024-01-30T08:44:11;11.02;;;5.40;;
52368;SDS011;38298;50.346;3.526;2024-01-30T08:46:37;9.45;;;4.53;;
52368;SDS011;38298;50.346;3.526;2024-01-30T08:49:03;13.60;;;6.47;;
52368;SDS011;38298;50.346;3.526;2024-01-30T08:51:32;15.27;;;5.72;;
52368;SDS011;38298;50.346;3.526;2024-01-30T08:53:59;11.50;;;5.60;;
52368;SDS011;38298;50.346;3.526;2024-01-30T08:56:25;13.15;;;5.50;;
52368;SDS011;38298;50.346;3.526;2024-01-30T08:58:51;9.07;;;5.35;;
52368;SDS011;38298;50.346;3.526;2024-01-30T09:01:17;13.20;;;5.60;;
52368;SDS011;38298;50.346;3.526;2024-01-30T09:03:43;11.15;;;5.43;;
52368;SDS011;38298;50.346;3.526;2024-01-30T09:06:11;12.10;;;5.63;;
52368;SDS011;38298;50.346;3.526;2024-01-30T09:08:37;13.60;;;6.00;;
52368;SDS011;38298;50.346;3.526;2024-01-30T09:11:13;15.25;;;6.43;;
52368;SDS011;38298;50.346;3.526;2024-01-30T09:13:39;16.70;;;6.72;;
52368;SDS011;38298;50.346;3.526;2024-01-30T09:16:05;17.92;;;6.15;;
52368;SDS011;38298;50.346;3.526;2024-01-30T09:18:31;14.02;;;5.35;;
52368;SDS011;38298;50.346;3.526;2024-01-30T09:20:57;13.20;;;5.43;;
52368;SDS011;38298;50.346;3.526;2024-01-30T09:23:24;14.68;;;4.72;;
52368;SDS011;38298;50.346;3.526;2024-01-30T09:25:50;20.40;;;4.90;;
52368;SDS011;38298;50.346;3.526;2024-01-30T09:28:17;16.35;;;4.85;;
52368;SDS011;38298;50.346;3.526;2024-01-30T09:30:43;19.05;;;4.65;;
52368;SDS011;38298;50.346;3.526;2024-01-30T09:33:09;11.93;;;4.03;;
52368;SDS011;38298;50.346;3.526;2024-01-30T09:35:36;15.23;;;3.80;;
52368;SDS011;38298;50.346;3.526;2024-01-30T09:38:02;10.45;;;3.75;;
52368;SDS011;38298;50.346;3.526;2024-01-30T09:40:28;8.27;;;3.47;;
52368;SDS011;38298;50.346;3.526;2024-01-30T09:42:54;10.02;;;3.35;;
52368;SDS011;38298;50.346;3.526;2024-01-30T09:45:23;10.75;;;3.50;;
52368;SDS011;38298;50.346;3.526;2024-01-30T09:47:49;12.55;;;3.25;;
52368;SDS011;38298;50.346;3.526;2024-01-30T09:50:16;17.92;;;2.65;;
52368;SDS011;38298;50.346;3.526;2024-01-30T09:52:45;17.20;;;3.15;;
52368;SDS011;38298;50.346;3.526;2024-01-30T09:55:11;26.60;;;3.67;;
52368;SDS011;38298;50.346;3.526;2024-01-30T09:57:37;14.77;;;2.80;;
52368;SDS011;38298;50.346;3.526;2024-01-30T10:00:04;11.30;;;3.28;;
52368;SDS011;38298;50.346;3.526;2024-01-30T10:02:32;9.82;;;2.72;;
52368;SDS011;38298;50.346;3.526;2024-01-30T10:04:58;11.57;;;3.03;;
52368;SDS011;38298;50.346;3.526;2024-01-30T10:07:24;8.20;;;2.35;;
52368;SDS011;38298;50.346;3.526;2024-01-30T10:09:50;8.93;;;2.17;;
52368;SDS011;38298;50.346;3.526;2024-01-30T10:12:18;10.40;;;2.20;;
52368;SDS011;38298;50.346;3.526;2024-01-30T10:14:44;9.93;;;2.30;;
52368;SDS011;38298;50.346;3.526;2024-01-30T10:17:10;7.65;;;1.98;;
52368;SDS011;38298;50.346;3.526;2024-01-30T10:19:40;6.97;;;2.03;;
52368;SDS011;38298;50.346;3.526;2024-01-30T10:22:06;8.95;;;1.50;;
52368;SDS011;38298;50.346;3.526;2024-01-30T10:24:35;13.65;;;2.25;;
52368;SDS011;38298;50.346;3.526;2024-01-30T10:27:02;7.13;;;2.50;;
52368;SDS011;38298;50.346;3.526;2024-01-30T10:29:28;8.38;;;1.50;;
52368;SDS011;38298;50.346;3.526;2024-01-30T10:32:03;10.23;;;1.48;;
52368;SDS011;38298;50.346;3.526;2024-01-30T10:34:30;3.78;;;1.10;;
52368;SDS011;38298;50.346;3.526;2024-01-30T10:37:03;1.52;;;0.82;;
52368;SDS011;38298;50.346;3.526;2024-01-30T10:39:30;6.35;;;1.05;;
52368;SDS011;38298;50.346;3.526;2024-01-30T10:41:59;8.15;;;0.95;;
52368;SDS011;38298;50.346;3.526;2024-01-30T10:44:30;6.93;;;0.98;;
52368;SDS011;38298;50.346;3.526;2024-01-30T10:47:00;2.63;;;0.50;;
52368;SDS011;38298;50.346;3.526;2024-01-30T10:49:28;1.88;;;0.60;;
52368;SDS011;38298;50.346;3.526;2024-01-30T10:51:55;2.92;;;0.60;;
52368;SDS011;38298;50.346;3.526;2024-01-30T10:54:22;2.65;;;0.40;;
52368;SDS011;38298;50.346;3.526;2024-01-30T10:56:49;8.40;;;0.52;;
52368;SDS011;38298;50.346;3.526;2024-01-30T10:59:15;1.05;;;0.30;;
52368;SDS011;38298;50.346;3.526;2024-01-30T11:01:41;1.27;;;0.40;;
52368;SDS011;38298;50.346;3.526;2024-01-30T11:04:08;3.33;;;0.45;;
52368;SDS011;38298;50.346;3.526;2024-01-30T11:06:40;0.73;;;0.43;;
52368;SDS011;38298;50.346;3.526;2024-01-30T11:09:10;0.93;;;0.30;;
52368;SDS011;38298;50.346;3.526;2024-01-30T11:11:56;3.05;;;0.40;;
52368;SDS011;38298;50.346;3.526;2024-01-30T11:14:26;0.77;;;0.25;;
52368;SDS011;38298;50.346;3.526;2024-01-30T11:16:52;0.93;;;0.32;;
52368;SDS011;38298;50.346;3.526;2024-01-30T11:19:25;3.10;;;0.85;;
52368;SDS011;38298;50.346;3.526;2024-01-30T11:21:54;2.63;;;0.40;;
52368;SDS011;38298;50.346;3.526;2024-01-30T11:26:48;2.83;;;0.40;;
52368;SDS011;38298;50.346;3.526;2024-01-30T11:29:16;0.98;;;0.60;;
52368;SDS011;38298;50.346;3.526;2024-01-30T11:31:52;2.90;;;0.30;;
52368;SDS011;38298;50.346;3.526;2024-01-30T11:34:19;0.43;;;0.20;;
52368;SDS011;38298;50.346;3.526;2024-01-30T11:36:46;0.30;;;0.30;;
52368;SDS011;38298;50.346;3.526;2024-01-30T11:39:16;0.73;;;0.23;;
52368;SDS011;38298;50.346;3.526;2024-01-30T11:41:43;2.13;;;0.35;;
52368;SDS011;38298;50.346;3.526;2024-01-30T11:44:09;3.03;;;0.28;;
52368;SDS011;38298;50.346;3.526;2024-01-30T11:46:35;2.55;;;0.45;;
52368;SDS011;38298;50.346;3.526;2024-01-30T11:49:01;1.55;;;0.30;;
52368;SDS011;38298;50.346;3.526;2024-01-30T11:51:27;0.45;;;0.22;;
52368;SDS011;38298;50.346;3.526;2024-01-30T11:53:53;1.58;;;0.45;;
52368;SDS011;38298;50.346;3.526;2024-01-30T11:56:19;3.08;;;0.43;;
52368;SDS011;38298;50.346;3.526;2024-01-30T11:58:45;5.50;;;0.40;;
52368;SDS011;38298;50.346;3.526;2024-01-30T12:01:11;1.50;;;0.38;;
52368;SDS011;38298;50.346;3.526;2024-01-30T12:03:37;0.65;;;0.30;;
52368;SDS011;38298;50.346;3.526;2024-01-30T12:06:04;4.03;;;0.40;;
52368;SDS011;38298;50.346;3.526;2024-01-30T12:08:30;3.15;;;0.60;;
52368;SDS011;38298;50.346;3.526;2024-01-30T12:10:56;2.80;;;0.50;;
52368;SDS011;38298;50.346;3.526;2024-01-30T12:13:30;3.70;;;0.40;;
52368;SDS011;38298;50.346;3.526;2024-01-30T12:15:56;2.25;;;0.30;;
52368;SDS011;38298;50.346;3.526;2024-01-30T12:18:22;3.70;;;0.60;;
52368;SDS011;38298;50.346;3.526;2024-01-30T12:21:00;2.78;;;0.35;;
52368;SDS011;38298;50.346;3.526;2024-01-30T12:23:27;2.88;;;0.50;;
52368;SDS011;38298;50.346;3.526;2024-01-30T12:25:53;3.67;;;0.60;;
52368;SDS011;38298;50.346;3.526;2024-01-30T12:28:20;2.15;;;0.50;;
52368;SDS011;38298;50.346;3.526;2024-01-30T12:30:46;2.67;;;0.55;;
52368;SDS011;38298;50.346;3.526;2024-01-30T12:33:18;0.75;;;0.40;;
52368;SDS011;38298;50.346;3.526;2024-01-30T12:35:45;2.42;;;0.43;;
52368;SDS011;38298;50.346;3.526;2024-01-30T12:38:12;2.17;;;0.47;;
52368;SDS011;38298;50.346;3.526;2024-01-30T12:40:39;2.63;;;0.40;;
52368;SDS011;38298;50.346;3.526;2024-01-30T12:43:05;4.10;;;0.63;;
52368;SDS011;38298;50.346;3.526;2024-01-30T12:45:31;1.35;;;0.30;;
52368;SDS011;38298;50.346;3.526;2024-01-30T12:47:57;3.83;;;1.30;;
52368;SDS011;38298;50.346;3.526;2024-01-30T12:50:23;3.28;;;0.77;;
52368;SDS011;38298;50.346;3.526;2024-01-30T12:52:49;3.45;;;0.45;;
52368;SDS011;38298;50.346;3.526;2024-01-30T12:55:15;1.52;;;0.45;;
52368;SDS011;38298;50.346;3.526;2024-01-30T12:57:41;5.18;;;0.68;;
52368;SDS011;38298;50.346;3.526;2024-01-30T13:00:08;4.72;;;0.73;;
52368;SDS011;38298;50.346;3.526;2024-01-30T13:02:34;3.53;;;0.95;;
52368;SDS011;38298;50.346;3.526;2024-01-30T13:05:04;7.43;;;0.93;;
52368;SDS011;38298;50.346;3.526;2024-01-30T13:07:31;6.88;;;0.73;;
52368;SDS011;38298;50.346;3.526;2024-01-30T13:10:00;3.70;;;0.55;;
52368;SDS011;38298;50.346;3.526;2024-01-30T13:12:28;9.45;;;0.63;;
52368;SDS011;38298;50.346;3.526;2024-01-30T13:14:54;3.50;;;0.90;;
52368;SDS011;38298;50.346;3.526;2024-01-30T13:17:20;14.63;;;1.20;;
52368;SDS011;38298;50.346;3.526;2024-01-30T13:19:47;18.52;;;1.05;;
52368;SDS011;38298;50.346;3.526;2024-01-30T13:22:14;9.85;;;1.42;;
52368;SDS011;38298;50.346;3.526;2024-01-30T13:24:40;9.23;;;0.93;;
52368;SDS011;38298;50.346;3.526;2024-01-30T13:27:07;13.50;;;1.20;;
52368;SDS011;38298;50.346;3.526;2024-01-30T13:29:33;10.82;;;0.95;;
52368;SDS011;38298;50.346;3.526;2024-01-30T13:31:59;8.07;;;0.80;;
52368;SDS011;38298;50.346;3.526;2024-01-30T13:34:25;3.35;;;0.45;;
52368;SDS011;38298;50.346;3.526;2024-01-30T13:36:51;5.88;;;0.43;;
52368;SDS011;38298;50.346;3.526;2024-01-30T13:39:17;4.60;;;0.73;;
52368;SDS011;38298;50.346;3.526;2024-01-30T13:41:44;2.38;;;0.43;;
52368;SDS011;38298;50.346;3.526;2024-01-30T13:44:10;2.72;;;0.50;;
52368;SDS011;38298;50.346;3.526;2024-01-30T13:46:36;2.50;;;0.55;;
52368;SDS011;38298;50.346;3.526;2024-01-30T13:49:03;5.38;;;0.70;;
52368;SDS011;38298;50.346;3.526;2024-01-30T13:51:29;4.22;;;0.60;;
52368;SDS011;38298;50.346;3.526;2024-01-30T13:53:55;7.60;;;0.70;;
52368;SDS011;38298;50.346;3.526;2024-01-30T13:56:21;4.25;;;0.60;;
52368;SDS011;38298;50.346;3.526;2024-01-30T13:58:50;9.93;;;1.05;;
52368;SDS011;38298;50.346;3.526;2024-01-30T14:01:16;12.43;;;0.98;;
52368;SDS011;38298;50.346;3.526;2024-01-30T14:03:42;4.78;;;0.45;;
52368;SDS011;38298;50.346;3.526;2024-01-30T14:06:08;3.55;;;0.43;;
52368;SDS011;38298;50.346;3.526;2024-01-30T14:08:34;8.73;;;0.75;;
52368;SDS011;38298;50.346;3.526;2024-01-30T14:11:00;4.78;;;0.60;;
52368;SDS011;38298;50.346;3.526;2024-01-30T14:13:26;4.05;;;0.70;;
52368;SDS011;38298;50.346;3.526;2024-01-30T14:15:52;1.73;;;0.57;;
52368;SDS011;38298;50.346;3.526;2024-01-30T14:18:18;9.00;;;0.50;;
52368;SDS011;38298;50.346;3.526;2024-01-30T14:20:45;5.00;;;0.55;;
52368;SDS011;38298;50.346;3.526;2024-01-30T14:23:11;4.13;;;0.60;;
52368;SDS011;38298;50.346;3.526;2024-01-30T14:25:37;3.83;;;0.65;;
52368;SDS011;38298;50.346;3.526;2024-01-30T14:28:03;3.85;;;0.55;;
52368;SDS011;38298;50.346;3.526;2024-01-30T14:30:29;2.70;;;0.50;;
52368;SDS011;38298;50.346;3.526;2024-01-30T14:32:55;2.63;;;0.35;;
52368;SDS011;38298;50.346;3.526;2024-01-30T14:35:21;3.15;;;0.47;;
52368;SDS011;38298;50.346;3.526;2024-01-30T14:37:47;3.55;;;0.55;;
52368;SDS011;38298;50.346;3.526;2024-01-30T14:40:13;1.45;;;0.40;;
52368;SDS011;38298;50.346;3.526;2024-01-30T14:42:40;2.22;;;0.50;;
52368;SDS011;38298;50.346;3.526;2024-01-30T14:45:06;3.67;;;0.60;;